Time;durP1;ratioP1;P1;durP2;ratioP2;P2;SDS_P1;SDS_P2;PMS_P1;PMS_P2;Temp;Humidity;BMP_temperature;BMP_pressure;BME280_temperature;BME280_humidity;BME280_pressure;Samples;Min_cycle;Max_cycle;Signal;HPM_P1;HPM_P2
2021/07/25 00:00:16;;;;;;;4.199999;3.4;;;;;;;21.18;78.125;94731.09;;;;
2021/07/25 00:01:17;;;;;;;4.199999;3.4;;;;;;;21.18;78.125;94731.09;;;;
2021/07/25 00:02:18;;;;;;;3.6;3.15;;;;;;;21.1;77.94629;94739.15;;;;
2021/07/25 00:03:18;;;;;;;3.6;3.15;;;;;;;21.1;77.94629;94739.15;;;;
2021/07/25 00:04:19;;;;;;;3.6;3.15;;;;;;;21.1;77.94629;94739.15;;;;
2021/07/25 00:05:19;;;;;;;3.6;3.15;;;;;;;21.1;77.94629;94739.15;;;;
2021/07/25 00:06:20;;;;;;;3.6;3.15;;;;;;;21.1;77.94629;94739.15;;;;
2021/07/25 00:07:20;;;;;;;3.6;3.15;;;;;;;21.1;77.94629;94739.15;;;;
2021/07/25 00:08:21;;;;;;;3.6;3.15;;;;;;;21.1;77.94629;94739.15;;;;
2021/07/25 00:09:22;;;;;;;3.6;3.15;;;;;;;21.1;77.94629;94739.15;;;;
2021/07/25 00:10:22;;;;;;;3.6;3.15;;;;;;;21.1;77.94629;94739.15;;;;
2021/07/25 00:11:23;;;;;;;3.6;3.15;;;;;;;21.1;77.94629;94739.15;;;;
2021/07/25 00:12:24;;;;;;;3.6;3.15;;;;;;;21.1;77.94629;94739.15;;;;
2021/07/25 00:13:24;;;;;;;3.6;2.95;;;;;;;21.05;78.02539;94729.27;;;;
2021/07/25 00:14:25;;;;;;;3.6;2.95;;;;;;;21.05;78.02539;94729.27;;;;
2021/07/25 00:15:25;;;;;;;3.6;2.95;;;;;;;21.05;78.02539;94729.27;;;;
2021/07/25 00:16:26;;;;;;;3.6;2.95;;;;;;;21.05;78.02539;94729.27;;;;
2021/07/25 00:17:26;;;;;;;3.6;2.95;;;;;;;21.05;78.02539;94729.27;;;;
2021/07/25 00:18:27;;;;;;;3.6;2.95;;;;;;;21.05;78.02539;94729.27;;;;
2021/07/25 00:19:28;;;;;;;3.6;2.95;;;;;;;21.05;78.02539;94729.27;;;;
2021/07/25 00:20:28;;;;;;;3.6;2.95;;;;;;;21.05;78.02539;94729.27;;;;
2021/07/25 00:21:29;;;;;;;3.6;2.95;;;;;;;21.05;78.02539;94729.27;;;;
2021/07/25 00:22:29;;;;;;;3.6;2.95;;;;;;;21.05;78.02539;94729.27;;;;
2021/07/25 00:23:30;;;;;;;3.3;3;;;;;;;21.01;78.25781;94725.52;;;;
2021/07/25 00:24:32;;;;;;;3.3;3;;;;;;;21.01;78.25781;94725.52;;;;
2021/07/25 00:25:35;;;;;;;3.3;3;;;;;;;21.01;78.25781;94725.52;;;;
2021/07/25 00:26:37;;;;;;;3.3;3;;;;;;;21.01;78.25781;94725.52;;;;
2021/07/25 00:27:39;;;;;;;3.3;3;;;;;;;21.01;78.25781;94725.52;;;;
2021/07/25 00:28:40;;;;;;;3.3;3;;;;;;;21.01;78.25781;94725.52;;;;
2021/07/25 00:29:41;;;;;;;3.3;3;;;;;;;21.01;78.25781;94725.52;;;;
2021/07/25 00:30:41;;;;;;;3.3;3;;;;;;;21.01;78.25781;94725.52;;;;
2021/07/25 00:31:42;;;;;;;3.3;3;;;;;;;21.01;78.25781;94725.52;;;;
2021/07/25 00:32:43;;;;;;;3.3;3;;;;;;;21.01;78.25781;94725.52;;;;
2021/07/25 00:33:43;;;;;;;3.3;3;;;;;;;21.01;78.25781;94725.52;;;;
2021/07/25 00:34:44;;;;;;;3.45;3.15;;;;;;;20.95;78.92773;94770.51;;;;
2021/07/25 00:35:45;;;;;;;3.45;3.15;;;;;;;20.95;78.92773;94770.51;;;;
2021/07/25 00:36:45;;;;;;;3.45;3.15;;;;;;;20.95;78.92773;94770.51;;;;
2021/07/25 00:37:47;;;;;;;3.45;3.15;;;;;;;20.95;78.92773;94770.51;;;;
2021/07/25 00:38:48;;;;;;;3.45;3.15;;;;;;;20.95;78.92773;94770.51;;;;
2021/07/25 00:39:49;;;;;;;3.45;3.15;;;;;;;20.95;78.92773;94770.51;;;;
2021/07/25 00:40:49;;;;;;;3.45;3.15;;;;;;;20.95;78.92773;94770.51;;;;
2021/07/25 00:41:53;;;;;;;3.45;3.15;;;;;;;20.95;78.92773;94770.51;;;;
2021/07/25 00:42:54;;;;;;;3.45;3.15;;;;;;;20.95;78.92773;94770.51;;;;
2021/07/25 00:43:55;;;;;;;3.45;3.15;;;;;;;20.95;78.92773;94770.51;;;;
2021/07/25 00:44:55;;;;;;;3.15;2.85;;;;;;;20.98;78.88965;94720.06;;;;
2021/07/25 00:45:56;;;;;;;3.15;2.85;;;;;;;20.98;78.88965;94720.06;;;;
2021/07/25 00:46:56;;;;;;;3.15;2.85;;;;;;;20.98;78.88965;94720.06;;;;
2021/07/25 00:47:59;;;;;;;3.15;2.85;;;;;;;20.98;78.88965;94720.06;;;;
2021/07/25 00:49:02;;;;;;;3.15;2.85;;;;;;;20.98;78.88965;94720.06;;;;
2021/07/25 00:50:03;;;;;;;3.15;2.85;;;;;;;20.98;78.88965;94720.06;;;;
2021/07/25 00:51:07;;;;;;;3.15;2.85;;;;;;;20.98;78.88965;94720.06;;;;
2021/07/25 00:52:08;;;;;;;3.15;2.85;;;;;;;20.98;78.88965;94720.06;;;;
2021/07/25 00:53:09;;;;;;;3.15;2.85;;;;;;;20.98;78.88965;94720.06;;;;
2021/07/25 00:54:10;;;;;;;3.15;2.85;;;;;;;20.98;78.88965;94720.06;;;;
2021/07/25 00:55:13;;;;;;;3.15;2.85;;;;;;;20.98;78.88965;94720.06;;;;
2021/07/25 00:56:14;;;;;;;3.9;3.1;;;;;;;20.94;79.65723;94709.07;;;;
2021/07/25 00:57:15;;;;;;;3.9;3.1;;;;;;;20.94;79.65723;94709.07;;;;
2021/07/25 00:58:16;;;;;;;3.9;3.1;;;;;;;20.94;79.65723;94709.07;;;;
2021/07/25 00:59:16;;;;;;;3.9;3.1;;;;;;;20.94;79.65723;94709.07;;;;
2021/07/25 01:00:17;;;;;;;3.9;3.1;;;;;;;20.94;79.65723;94709.07;;;;
2021/07/25 01:01:19;;;;;;;3.9;3.1;;;;;;;20.94;79.65723;94709.07;;;;
2021/07/25 01:02:21;;;;;;;3.9;3.1;;;;;;;20.94;79.65723;94709.07;;;;
2021/07/25 01:03:24;;;;;;;3.9;3.1;;;;;;;20.94;79.65723;94709.07;;;;
2021/07/25 01:04:32;;;;;;;3.9;3.1;;;;;;;20.94;79.65723;94709.07;;;;
2021/07/25 01:05:41;;;;;;;3.9;3.1;;;;;;;20.94;79.65723;94709.07;;;;
2021/07/25 01:06:49;;;;;;;4.65;3.35;;;;;;;20.93;79.82227;94701.39;;;;
2021/07/25 01:08:01;;;;;;;4.65;3.35;;;;;;;20.93;79.82227;94701.39;;;;
2021/07/25 01:09:08;;;;;;;4.65;3.35;;;;;;;20.93;79.82227;94701.39;;;;
2021/07/25 01:10:14;;;;;;;4.65;3.35;;;;;;;20.93;79.82227;94701.39;;;;
2021/07/25 01:11:19;;;;;;;4.65;3.35;;;;;;;20.93;79.82227;94701.39;;;;
2021/07/25 01:12:20;;;;;;;4.65;3.35;;;;;;;20.93;79.82227;94701.39;;;;
2021/07/25 01:13:27;;;;;;;4.65;3.35;;;;;;;20.93;79.82227;94701.39;;;;
2021/07/25 01:14:29;;;;;;;4.65;3.35;;;;;;;20.93;79.82227;94701.39;;;;
2021/07/25 01:15:33;;;;;;;4.65;3.35;;;;;;;20.93;79.82227;94701.39;;;;
2021/07/25 01:16:33;;;;;;;4.65;3.35;;;;;;;20.93;79.82227;94701.39;;;;
2021/07/25 01:17:34;;;;;;;4.45;3.2;;;;;;;20.88;80.44824;94713.87;;;;
2021/07/25 01:18:36;;;;;;;4.45;3.2;;;;;;;20.88;80.44824;94713.87;;;;
2021/07/25 01:19:44;;;;;;;4.45;3.2;;;;;;;20.88;80.44824;94713.87;;;;
2021/07/25 01:20:48;;;;;;;4.45;3.2;;;;;;;20.88;80.44824;94713.87;;;;
2021/07/25 01:21:49;;;;;;;4.45;3.2;;;;;;;20.88;80.44824;94713.87;;;;
2021/07/25 01:22:49;;;;;;;4.45;3.2;;;;;;;20.88;80.44824;94713.87;;;;
2021/07/25 01:23:52;;;;;;;4.45;3.2;;;;;;;20.88;80.44824;94713.87;;;;
2021/07/25 01:24:52;;;;;;;4.45;3.2;;;;;;;20.88;80.44824;94713.87;;;;
2021/07/25 01:25:53;;;;;;;4.45;3.2;;;;;;;20.88;80.44824;94713.87;;;;
2021/07/25 01:26:58;;;;;;;4.45;3.2;;;;;;;20.88;80.44824;94713.87;;;;
2021/07/25 01:27:58;;;;;;;4.35;3.2;;;;;;;20.9;80.74512;94683.37;;;;
2021/07/25 01:29:05;;;;;;;4.35;3.2;;;;;;;20.9;80.74512;94683.37;;;;
2021/07/25 01:30:06;;;;;;;4.35;3.2;;;;;;;20.9;80.74512;94683.37;;;;
2021/07/25 01:31:11;;;;;;;4.35;3.2;;;;;;;20.9;80.74512;94683.37;;;;
2021/07/25 01:32:17;;;;;;;4.35;3.2;;;;;;;20.9;80.74512;94683.37;;;;
2021/07/25 01:33:20;;;;;;;4.35;3.2;;;;;;;20.9;80.74512;94683.37;;;;
2021/07/25 01:34:25;;;;;;;4.35;3.2;;;;;;;20.9;80.74512;94683.37;;;;
2021/07/25 01:35:25;;;;;;;4.35;3.2;;;;;;;20.9;80.74512;94683.37;;;;
2021/07/25 01:36:27;;;;;;;4.35;3.2;;;;;;;20.9;80.74512;94683.37;;;;
2021/07/25 01:37:29;;;;;;;4.35;3.2;;;;;;;20.9;80.74512;94683.37;;;;
2021/07/25 01:38:31;;;;;;;4.15;3.3;;;;;;;20.85;81.02051;94677.44;;;;
2021/07/25 01:39:32;;;;;;;4.15;3.3;;;;;;;20.85;81.02051;94677.44;;;;
2021/07/25 01:40:32;;;;;;;4.15;3.3;;;;;;;20.85;81.02051;94677.44;;;;
2021/07/25 01:41:33;;;;;;;4.15;3.3;;;;;;;20.85;81.02051;94677.44;;;;
2021/07/25 01:42:42;;;;;;;4.15;3.3;;;;;;;20.85;81.02051;94677.44;;;;
2021/07/25 01:43:43;;;;;;;4.15;3.3;;;;;;;20.85;81.02051;94677.44;;;;
2021/07/25 01:44:46;;;;;;;4.15;3.3;;;;;;;20.85;81.02051;94677.44;;;;
2021/07/25 01:45:47;;;;;;;4.15;3.3;;;;;;;20.85;81.02051;94677.44;;;;
2021/07/25 01:46:47;;;;;;;4.15;3.3;;;;;;;20.85;81.02051;94677.44;;;;
2021/07/25 01:47:48;;;;;;;4.15;3.3;;;;;;;20.85;81.02051;94677.44;;;;
2021/07/25 01:48:48;;;;;;;3.3;3;;;;;;;20.88;81.11328;94695.62;;;;
2021/07/25 01:49:49;;;;;;;3.3;3;;;;;;;20.88;81.11328;94695.62;;;;
2021/07/25 01:50:49;;;;;;;3.3;3;;;;;;;20.88;81.11328;94695.62;;;;
2021/07/25 01:51:50;;;;;;;3.3;3;;;;;;;20.88;81.11328;94695.62;;;;
2021/07/25 01:52:50;;;;;;;3.3;3;;;;;;;20.88;81.11328;94695.62;;;;
2021/07/25 01:53:51;;;;;;;3.3;3;;;;;;;20.88;81.11328;94695.62;;;;
2021/07/25 01:54:52;;;;;;;3.3;3;;;;;;;20.88;81.11328;94695.62;;;;
2021/07/25 01:55:52;;;;;;;3.3;3;;;;;;;20.88;81.11328;94695.62;;;;
2021/07/25 01:56:53;;;;;;;3.3;3;;;;;;;20.88;81.11328;94695.62;;;;
2021/07/25 01:57:53;;;;;;;3.3;3;;;;;;;20.88;81.11328;94695.62;;;;
2021/07/25 01:58:54;;;;;;;3.3;3;;;;;;;20.88;81.11328;94695.62;;;;
2021/07/25 01:59:55;;;;;;;5.9;3.4;;;;;;;20.84;81.37988;94696;;;;
2021/07/25 02:00:56;;;;;;;5.9;3.4;;;;;;;20.84;81.37988;94696;;;;
2021/07/25 02:01:56;;;;;;;5.9;3.4;;;;;;;20.84;81.37988;94696;;;;
2021/07/25 02:02:57;;;;;;;5.9;3.4;;;;;;;20.84;81.37988;94696;;;;
2021/07/25 02:03:57;;;;;;;5.9;3.4;;;;;;;20.84;81.37988;94696;;;;
2021/07/25 02:04:58;;;;;;;5.9;3.4;;;;;;;20.84;81.37988;94696;;;;
2021/07/25 02:05:58;;;;;;;5.9;3.4;;;;;;;20.84;81.37988;94696;;;;
2021/07/25 02:06:59;;;;;;;5.9;3.4;;;;;;;20.84;81.37988;94696;;;;
2021/07/25 02:08:00;;;;;;;5.9;3.4;;;;;;;20.84;81.37988;94696;;;;
2021/07/25 02:09:00;;;;;;;5.9;3.4;;;;;;;20.84;81.37988;94696;;;;
2021/07/25 02:10:01;;;;;;;4.4;3.15;;;;;;;20.85;81.08398;94687.22;;;;
2021/07/25 02:11:01;;;;;;;4.4;3.15;;;;;;;20.85;81.08398;94687.22;;;;
2021/07/25 02:12:02;;;;;;;4.4;3.15;;;;;;;20.85;81.08398;94687.22;;;;
2021/07/25 02:13:03;;;;;;;4.4;3.15;;;;;;;20.85;81.08398;94687.22;;;;
2021/07/25 02:14:03;;;;;;;4.4;3.15;;;;;;;20.85;81.08398;94687.22;;;;
2021/07/25 02:15:04;;;;;;;4.4;3.15;;;;;;;20.85;81.08398;94687.22;;;;
2021/07/25 02:16:05;;;;;;;4.4;3.15;;;;;;;20.85;81.08398;94687.22;;;;
2021/07/25 02:17:06;;;;;;;4.4;3.15;;;;;;;20.85;81.08398;94687.22;;;;
2021/07/25 02:18:08;;;;;;;4.4;3.15;;;;;;;20.85;81.08398;94687.22;;;;
2021/07/25 02:19:09;;;;;;;4.4;3.15;;;;;;;20.85;81.08398;94687.22;;;;
2021/07/25 02:20:09;;;;;;;4.4;3.15;;;;;;;20.85;81.08398;94687.22;;;;
2021/07/25 02:21:11;;;;;;;6.099999;3.3;;;;;;;20.81;80.94824;94695.26;;;;
2021/07/25 02:22:11;;;;;;;6.099999;3.3;;;;;;;20.81;80.94824;94695.26;;;;
2021/07/25 02:23:12;;;;;;;6.099999;3.3;;;;;;;20.81;80.94824;94695.26;;;;
2021/07/25 02:24:12;;;;;;;6.099999;3.3;;;;;;;20.81;80.94824;94695.26;;;;
2021/07/25 02:25:13;;;;;;;6.099999;3.3;;;;;;;20.81;80.94824;94695.26;;;;
2021/07/25 02:26:13;;;;;;;6.099999;3.3;;;;;;;20.81;80.94824;94695.26;;;;
2021/07/25 02:27:14;;;;;;;6.099999;3.3;;;;;;;20.81;80.94824;94695.26;;;;
2021/07/25 02:28:14;;;;;;;6.099999;3.3;;;;;;;20.81;80.94824;94695.26;;;;
2021/07/25 02:29:15;;;;;;;6.099999;3.3;;;;;;;20.81;80.94824;94695.26;;;;
2021/07/25 02:30:16;;;;;;;6.099999;3.3;;;;;;;20.81;80.94824;94695.26;;;;
2021/07/25 02:31:17;;;;;;;5.55;3.4;;;;;;;20.74;81.58105;94723.13;;;;
2021/07/25 02:32:18;;;;;;;5.55;3.4;;;;;;;20.74;81.58105;94723.13;;;;
2021/07/25 02:33:18;;;;;;;5.55;3.4;;;;;;;20.74;81.58105;94723.13;;;;
2021/07/25 02:34:19;;;;;;;5.55;3.4;;;;;;;20.74;81.58105;94723.13;;;;
2021/07/25 02:35:19;;;;;;;5.55;3.4;;;;;;;20.74;81.58105;94723.13;;;;
2021/07/25 02:36:20;;;;;;;5.55;3.4;;;;;;;20.74;81.58105;94723.13;;;;
2021/07/25 02:37:20;;;;;;;5.55;3.4;;;;;;;20.74;81.58105;94723.13;;;;
2021/07/25 02:38:21;;;;;;;5.55;3.4;;;;;;;20.74;81.58105;94723.13;;;;
2021/07/25 02:39:21;;;;;;;5.55;3.4;;;;;;;20.74;81.58105;94723.13;;;;
2021/07/25 02:40:22;;;;;;;5.55;3.4;;;;;;;20.74;81.58105;94723.13;;;;
2021/07/25 02:41:23;;;;;;;5.55;3.4;;;;;;;20.74;81.58105;94723.13;;;;
2021/07/25 02:42:24;;;;;;;3.95;3.1;;;;;;;20.77;81.3125;94738.17;;;;
2021/07/25 02:43:24;;;;;;;3.95;3.1;;;;;;;20.77;81.3125;94738.17;;;;
2021/07/25 02:44:25;;;;;;;3.95;3.1;;;;;;;20.77;81.3125;94738.17;;;;
2021/07/25 02:45:25;;;;;;;3.95;3.1;;;;;;;20.77;81.3125;94738.17;;;;
2021/07/25 02:46:26;;;;;;;3.95;3.1;;;;;;;20.77;81.3125;94738.17;;;;
2021/07/25 02:47:27;;;;;;;3.95;3.1;;;;;;;20.77;81.3125;94738.17;;;;
2021/07/25 02:48:27;;;;;;;3.95;3.1;;;;;;;20.77;81.3125;94738.17;;;;
2021/07/25 02:49:28;;;;;;;3.95;3.1;;;;;;;20.77;81.3125;94738.17;;;;
2021/07/25 02:50:28;;;;;;;3.95;3.1;;;;;;;20.77;81.3125;94738.17;;;;
2021/07/25 02:51:29;;;;;;;3.95;3.1;;;;;;;20.77;81.3125;94738.17;;;;
2021/07/25 02:52:30;;;;;;;3.95;3.1;;;;;;;20.77;81.3125;94738.17;;;;
2021/07/25 02:53:30;;;;;;;5.1;2.95;;;;;;;20.79;81.19434;94764.75;;;;
2021/07/25 02:54:31;;;;;;;5.1;2.95;;;;;;;20.79;81.19434;94764.75;;;;
2021/07/25 02:55:32;;;;;;;5.1;2.95;;;;;;;20.79;81.19434;94764.75;;;;
2021/07/25 02:56:32;;;;;;;5.1;2.95;;;;;;;20.79;81.19434;94764.75;;;;
2021/07/25 02:57:33;;;;;;;5.1;2.95;;;;;;;20.79;81.19434;94764.75;;;;
2021/07/25 02:58:33;;;;;;;5.1;2.95;;;;;;;20.79;81.19434;94764.75;;;;
2021/07/25 02:59:34;;;;;;;5.1;2.95;;;;;;;20.79;81.19434;94764.75;;;;
2021/07/25 03:00:34;;;;;;;5.1;2.95;;;;;;;20.79;81.19434;94764.75;;;;
2021/07/25 03:01:35;;;;;;;5.1;2.95;;;;;;;20.79;81.19434;94764.75;;;;
2021/07/25 03:02:36;;;;;;;5.1;2.95;;;;;;;20.79;81.19434;94764.75;;;;
2021/07/25 03:03:37;;;;;;;3.25;2.95;;;;;;;20.73;81.59961;94763.23;;;;
2021/07/25 03:04:41;;;;;;;3.25;2.95;;;;;;;20.73;81.59961;94763.23;;;;
2021/07/25 03:05:41;;;;;;;3.25;2.95;;;;;;;20.73;81.59961;94763.23;;;;
2021/07/25 03:06:42;;;;;;;3.25;2.95;;;;;;;20.73;81.59961;94763.23;;;;
2021/07/25 03:07:42;;;;;;;3.25;2.95;;;;;;;20.73;81.59961;94763.23;;;;
2021/07/25 03:08:43;;;;;;;3.25;2.95;;;;;;;20.73;81.59961;94763.23;;;;
2021/07/25 03:09:44;;;;;;;3.25;2.95;;;;;;;20.73;81.59961;94763.23;;;;
2021/07/25 03:10:44;;;;;;;3.25;2.95;;;;;;;20.73;81.59961;94763.23;;;;
2021/07/25 03:11:45;;;;;;;3.25;2.95;;;;;;;20.73;81.59961;94763.23;;;;
2021/07/25 03:12:45;;;;;;;3.25;2.95;;;;;;;20.73;81.59961;94763.23;;;;
2021/07/25 03:13:46;;;;;;;3.25;2.95;;;;;;;20.73;81.59961;94763.23;;;;
2021/07/25 03:14:46;;;;;;;4.05;3.05;;;;;;;20.74;81.20898;94762.92;;;;
2021/07/25 03:15:47;;;;;;;4.05;3.05;;;;;;;20.74;81.20898;94762.92;;;;
2021/07/25 03:16:47;;;;;;;4.05;3.05;;;;;;;20.74;81.20898;94762.92;;;;
2021/07/25 03:17:48;;;;;;;4.05;3.05;;;;;;;20.74;81.20898;94762.92;;;;
2021/07/25 03:18:49;;;;;;;4.05;3.05;;;;;;;20.74;81.20898;94762.92;;;;
2021/07/25 03:19:49;;;;;;;4.05;3.05;;;;;;;20.74;81.20898;94762.92;;;;
2021/07/25 03:20:50;;;;;;;4.05;3.05;;;;;;;20.74;81.20898;94762.92;;;;
2021/07/25 03:21:50;;;;;;;4.05;3.05;;;;;;;20.74;81.20898;94762.92;;;;
2021/07/25 03:22:51;;;;;;;4.05;3.05;;;;;;;20.74;81.20898;94762.92;;;;
2021/07/25 03:23:51;;;;;;;4.05;3.05;;;;;;;20.74;81.20898;94762.92;;;;
2021/07/25 03:24:52;;;;;;;5.099999;3.35;;;;;;;20.69;81.83301;94749.88;;;;
2021/07/25 03:25:53;;;;;;;5.099999;3.35;;;;;;;20.69;81.83301;94749.88;;;;
2021/07/25 03:26:53;;;;;;;5.099999;3.35;;;;;;;20.69;81.83301;94749.88;;;;
2021/07/25 03:27:54;;;;;;;5.099999;3.35;;;;;;;20.69;81.83301;94749.88;;;;
2021/07/25 03:28:54;;;;;;;5.099999;3.35;;;;;;;20.69;81.83301;94749.88;;;;
2021/07/25 03:29:55;;;;;;;5.099999;3.35;;;;;;;20.69;81.83301;94749.88;;;;
2021/07/25 03:30:55;;;;;;;5.099999;3.35;;;;;;;20.69;81.83301;94749.88;;;;
2021/07/25 03:31:56;;;;;;;5.099999;3.35;;;;;;;20.69;81.83301;94749.88;;;;
2021/07/25 03:32:57;;;;;;;5.099999;3.35;;;;;;;20.69;81.83301;94749.88;;;;
2021/07/25 03:33:59;;;;;;;5.099999;3.35;;;;;;;20.69;81.83301;94749.88;;;;
2021/07/25 03:34:59;;;;;;;5.099999;3.35;;;;;;;20.69;81.83301;94749.88;;;;
2021/07/25 03:36:00;;;;;;;3.4;3.05;;;;;;;20.72;81.68652;94745.95;;;;
2021/07/25 03:37:01;;;;;;;3.4;3.05;;;;;;;20.72;81.68652;94745.95;;;;
2021/07/25 03:38:03;;;;;;;3.4;3.05;;;;;;;20.72;81.68652;94745.95;;;;
2021/07/25 03:39:03;;;;;;;3.4;3.05;;;;;;;20.72;81.68652;94745.95;;;;
2021/07/25 03:40:11;;;;;;;3.4;3.05;;;;;;;20.72;81.68652;94745.95;;;;
2021/07/25 03:41:12;;;;;;;3.4;3.05;;;;;;;20.72;81.68652;94745.95;;;;
2021/07/25 03:42:14;;;;;;;3.4;3.05;;;;;;;20.72;81.68652;94745.95;;;;
2021/07/25 03:43:14;;;;;;;3.4;3.05;;;;;;;20.72;81.68652;94745.95;;;;
2021/07/25 03:44:15;;;;;;;3.4;3.05;;;;;;;20.72;81.68652;94745.95;;;;
2021/07/25 03:45:16;;;;;;;3.4;3.05;;;;;;;20.72;81.68652;94745.95;;;;
2021/07/25 03:46:17;;;;;;;5.55;3.1;;;;;;;20.7;81.65039;94765.89;;;;
2021/07/25 03:47:17;;;;;;;5.55;3.1;;;;;;;20.7;81.65039;94765.89;;;;
2021/07/25 03:48:18;;;;;;;5.55;3.1;;;;;;;20.7;81.65039;94765.89;;;;
2021/07/25 03:49:19;;;;;;;5.55;3.1;;;;;;;20.7;81.65039;94765.89;;;;
2021/07/25 03:50:20;;;;;;;5.55;3.1;;;;;;;20.7;81.65039;94765.89;;;;
2021/07/25 03:51:22;;;;;;;5.55;3.1;;;;;;;20.7;81.65039;94765.89;;;;
2021/07/25 03:52:22;;;;;;;5.55;3.1;;;;;;;20.7;81.65039;94765.89;;;;
2021/07/25 03:53:23;;;;;;;5.55;3.1;;;;;;;20.7;81.65039;94765.89;;;;
2021/07/25 03:54:23;;;;;;;5.55;3.1;;;;;;;20.7;81.65039;94765.89;;;;
2021/07/25 03:55:24;;;;;;;5.55;3.1;;;;;;;20.7;81.65039;94765.89;;;;
2021/07/25 03:56:25;;;;;;;5.55;3.1;;;;;;;20.7;81.65039;94765.89;;;;
2021/07/25 03:57:25;;;;;;;4.15;3.25;;;;;;;20.67;81.76367;94806.04;;;;
2021/07/25 03:58:26;;;;;;;4.15;3.25;;;;;;;20.67;81.76367;94806.04;;;;
2021/07/25 03:59:26;;;;;;;4.15;3.25;;;;;;;20.67;81.76367;94806.04;;;;
2021/07/25 04:00:27;;;;;;;4.15;3.25;;;;;;;20.67;81.76367;94806.04;;;;
2021/07/25 04:01:28;;;;;;;4.15;3.25;;;;;;;20.67;81.76367;94806.04;;;;
2021/07/25 04:02:28;;;;;;;4.15;3.25;;;;;;;20.67;81.76367;94806.04;;;;
2021/07/25 04:03:29;;;;;;;4.15;3.25;;;;;;;20.67;81.76367;94806.04;;;;
2021/07/25 04:04:29;;;;;;;4.15;3.25;;;;;;;20.67;81.76367;94806.04;;;;
2021/07/25 04:05:30;;;;;;;4.15;3.25;;;;;;;20.67;81.76367;94806.04;;;;
2021/07/25 04:06:31;;;;;;;4.15;3.25;;;;;;;20.67;81.76367;94806.04;;;;
2021/07/25 04:07:31;;;;;;;4;3.45;;;;;;;20.69;81.52734;94812.03;;;;
2021/07/25 04:08:32;;;;;;;4;3.45;;;;;;;20.69;81.52734;94812.03;;;;
2021/07/25 04:09:32;;;;;;;4;3.45;;;;;;;20.69;81.52734;94812.03;;;;
2021/07/25 04:10:33;;;;;;;4;3.45;;;;;;;20.69;81.52734;94812.03;;;;
2021/07/25 04:11:33;;;;;;;4;3.45;;;;;;;20.69;81.52734;94812.03;;;;
2021/07/25 04:12:34;;;;;;;4;3.45;;;;;;;20.69;81.52734;94812.03;;;;
2021/07/25 04:13:34;;;;;;;4;3.45;;;;;;;20.69;81.52734;94812.03;;;;
2021/07/25 04:14:35;;;;;;;4;3.45;;;;;;;20.69;81.52734;94812.03;;;;
2021/07/25 04:15:36;;;;;;;4;3.45;;;;;;;20.69;81.52734;94812.03;;;;
2021/07/25 04:16:38;;;;;;;4;3.45;;;;;;;20.69;81.52734;94812.03;;;;
2021/07/25 04:17:38;;;;;;;4;3.45;;;;;;;20.69;81.52734;94812.03;;;;
2021/07/25 04:18:39;;;;;;;4;3.15;;;;;;;20.69;81.72363;94811.63;;;;
2021/07/25 04:19:39;;;;;;;4;3.15;;;;;;;20.69;81.72363;94811.63;;;;
2021/07/25 04:20:40;;;;;;;4;3.15;;;;;;;20.69;81.72363;94811.63;;;;
2021/07/25 04:21:41;;;;;;;4;3.15;;;;;;;20.69;81.72363;94811.63;;;;
2021/07/25 04:22:41;;;;;;;4;3.15;;;;;;;20.69;81.72363;94811.63;;;;
2021/07/25 04:23:42;;;;;;;4;3.15;;;;;;;20.69;81.72363;94811.63;;;;
2021/07/25 04:24:42;;;;;;;4;3.15;;;;;;;20.69;81.72363;94811.63;;;;
2021/07/25 04:25:43;;;;;;;4;3.15;;;;;;;20.69;81.72363;94811.63;;;;
2021/07/25 04:26:44;;;;;;;4;3.15;;;;;;;20.69;81.72363;94811.63;;;;
2021/07/25 04:27:45;;;;;;;4;3.15;;;;;;;20.69;81.72363;94811.63;;;;
2021/07/25 04:28:46;;;;;;;5.3;3.25;;;;;;;20.65;81.96777;94792.81;;;;
2021/07/25 04:29:47;;;;;;;5.3;3.25;;;;;;;20.65;81.96777;94792.81;;;;
2021/07/25 04:30:48;;;;;;;5.3;3.25;;;;;;;20.65;81.96777;94792.81;;;;
2021/07/25 04:31:49;;;;;;;5.3;3.25;;;;;;;20.65;81.96777;94792.81;;;;
2021/07/25 04:32:50;;;;;;;5.3;3.25;;;;;;;20.65;81.96777;94792.81;;;;
2021/07/25 04:33:53;;;;;;;5.3;3.25;;;;;;;20.65;81.96777;94792.81;;;;
2021/07/25 04:34:55;;;;;;;5.3;3.25;;;;;;;20.65;81.96777;94792.81;;;;
2021/07/25 04:35:56;;;;;;;5.3;3.25;;;;;;;20.65;81.96777;94792.81;;;;
2021/07/25 04:36:59;;;;;;;5.3;3.25;;;;;;;20.65;81.96777;94792.81;;;;
2021/07/25 04:38:00;;;;;;;5.3;3.25;;;;;;;20.65;81.96777;94792.81;;;;
2021/07/25 04:39:03;;;;;;;5.3;3.25;;;;;;;20.65;81.96777;94792.81;;;;
2021/07/25 04:40:07;;;;;;;4.55;3.6;;;;;;;20.68;82.36621;94798.08;;;;
2021/07/25 04:41:10;;;;;;;4.55;3.6;;;;;;;20.68;82.36621;94798.08;;;;
2021/07/25 04:42:13;;;;;;;4.55;3.6;;;;;;;20.68;82.36621;94798.08;;;;
2021/07/25 04:43:18;;;;;;;4.55;3.6;;;;;;;20.68;82.36621;94798.08;;;;
2021/07/25 04:44:22;;;;;;;4.55;3.6;;;;;;;20.68;82.36621;94798.08;;;;
2021/07/25 04:45:29;;;;;;;4.55;3.6;;;;;;;20.68;82.36621;94798.08;;;;
2021/07/25 04:46:34;;;;;;;4.55;3.6;;;;;;;20.68;82.36621;94798.08;;;;
2021/07/25 04:47:37;;;;;;;4.55;3.6;;;;;;;20.68;82.36621;94798.08;;;;
2021/07/25 04:48:44;;;;;;;4.55;3.6;;;;;;;20.68;82.36621;94798.08;;;;
2021/07/25 04:49:48;;;;;;;4.55;3.6;;;;;;;20.68;82.36621;94798.08;;;;
2021/07/25 04:50:57;;;;;;;4.5;3.8;;;;;;;20.66;82.625;94800.31;;;;
2021/07/25 04:52:04;;;;;;;4.5;3.8;;;;;;;20.66;82.625;94800.31;;;;
2021/07/25 04:53:09;;;;;;;4.5;3.8;;;;;;;20.66;82.625;94800.31;;;;
2021/07/25 04:54:22;;;;;;;4.5;3.8;;;;;;;20.66;82.625;94800.31;;;;
2021/07/25 04:55:24;;;;;;;4.5;3.8;;;;;;;20.66;82.625;94800.31;;;;
2021/07/25 04:56:30;;;;;;;4.5;3.8;;;;;;;20.66;82.625;94800.31;;;;
2021/07/25 04:57:38;;;;;;;4.5;3.8;;;;;;;20.66;82.625;94800.31;;;;
2021/07/25 04:58:42;;;;;;;4.5;3.8;;;;;;;20.66;82.625;94800.31;;;;
2021/07/25 04:59:46;;;;;;;4.5;3.8;;;;;;;20.66;82.625;94800.31;;;;
2021/07/25 05:00:49;;;;;;;3.8;3.3;;;;;;;20.68;82.56348;94784.77;;;;
2021/07/25 05:01:53;;;;;;;3.8;3.3;;;;;;;20.68;82.56348;94784.77;;;;
2021/07/25 05:03:00;;;;;;;3.8;3.3;;;;;;;20.68;82.56348;94784.77;;;;
2021/07/25 05:04:01;;;;;;;3.8;3.3;;;;;;;20.68;82.56348;94784.77;;;;
2021/07/25 05:05:04;;;;;;;3.8;3.3;;;;;;;20.68;82.56348;94784.77;;;;
2021/07/25 05:06:06;;;;;;;3.8;3.3;;;;;;;20.68;82.56348;94784.77;;;;
2021/07/25 05:07:09;;;;;;;3.8;3.3;;;;;;;20.68;82.56348;94784.77;;;;
2021/07/25 05:08:11;;;;;;;3.8;3.3;;;;;;;20.68;82.56348;94784.77;;;;
2021/07/25 05:09:13;;;;;;;3.8;3.3;;;;;;;20.68;82.56348;94784.77;;;;
2021/07/25 05:10:14;;;;;;;3.8;3.3;;;;;;;20.68;82.56348;94784.77;;;;
2021/07/25 05:11:16;;;;;;;3.8;3.3;;;;;;;20.68;82.56348;94784.77;;;;
2021/07/25 05:12:19;;;;;;;4.400001;3.45;;;;;;;20.65;83.23535;94769.08;;;;
2021/07/25 05:13:26;;;;;;;4.400001;3.45;;;;;;;20.65;83.23535;94769.08;;;;
2021/07/25 05:14:33;;;;;;;4.400001;3.45;;;;;;;20.65;83.23535;94769.08;;;;
2021/07/25 05:15:37;;;;;;;4.400001;3.45;;;;;;;20.65;83.23535;94769.08;;;;
2021/07/25 05:16:41;;;;;;;4.400001;3.45;;;;;;;20.65;83.23535;94769.08;;;;
2021/07/25 05:17:46;;;;;;;4.400001;3.45;;;;;;;20.65;83.23535;94769.08;;;;
2021/07/25 05:18:56;;;;;;;4.400001;3.45;;;;;;;20.65;83.23535;94769.08;;;;
2021/07/25 05:20:26;;;;;;;4.400001;3.45;;;;;;;20.65;83.23535;94769.08;;;;
2021/07/25 05:21:34;;;;;;;4.400001;3.45;;;;;;;20.65;83.23535;94769.08;;;;
2021/07/25 05:22:40;;;;;;;4.15;3.649999;;;;;;;20.68;83.29492;94796.12;;;;
2021/07/25 05:23:51;;;;;;;4.15;3.649999;;;;;;;20.68;83.29492;94796.12;;;;
2021/07/25 05:24:54;;;;;;;4.15;3.649999;;;;;;;20.68;83.29492;94796.12;;;;
2021/07/25 05:25:54;;;;;;;4.15;3.649999;;;;;;;20.68;83.29492;94796.12;;;;
2021/07/25 05:26:56;;;;;;;4.15;3.649999;;;;;;;20.68;83.29492;94796.12;;;;
2021/07/25 05:28:01;;;;;;;4.15;3.649999;;;;;;;20.68;83.29492;94796.12;;;;
2021/07/25 05:29:05;;;;;;;4.15;3.649999;;;;;;;20.68;83.29492;94796.12;;;;
2021/07/25 05:30:07;;;;;;;4.15;3.649999;;;;;;;20.68;83.29492;94796.12;;;;
2021/07/25 05:31:09;;;;;;;4.15;3.649999;;;;;;;20.68;83.29492;94796.12;;;;
2021/07/25 05:32:10;;;;;;;4.15;3.649999;;;;;;;20.68;83.29492;94796.12;;;;
2021/07/25 05:33:11;;;;;;;3.9;3.45;;;;;;;20.66;83.70605;94766.99;;;;
2021/07/25 05:34:11;;;;;;;3.9;3.45;;;;;;;20.66;83.70605;94766.99;;;;
2021/07/25 05:35:12;;;;;;;3.9;3.45;;;;;;;20.66;83.70605;94766.99;;;;
2021/07/25 05:36:13;;;;;;;3.9;3.45;;;;;;;20.66;83.70605;94766.99;;;;
2021/07/25 05:37:14;;;;;;;3.9;3.45;;;;;;;20.66;83.70605;94766.99;;;;
2021/07/25 05:38:14;;;;;;;3.9;3.45;;;;;;;20.66;83.70605;94766.99;;;;
2021/07/25 05:39:18;;;;;;;3.9;3.45;;;;;;;20.66;83.70605;94766.99;;;;
2021/07/25 05:40:18;;;;;;;3.9;3.45;;;;;;;20.66;83.70605;94766.99;;;;
2021/07/25 05:41:19;;;;;;;3.9;3.45;;;;;;;20.66;83.70605;94766.99;;;;
2021/07/25 05:42:20;;;;;;;3.9;3.45;;;;;;;20.66;83.70605;94766.99;;;;
2021/07/25 05:43:20;;;;;;;3.9;3.45;;;;;;;20.66;83.70605;94766.99;;;;
2021/07/25 05:44:21;;;;;;;4.4;3.8;;;;;;;20.69;84.3125;94786.14;;;;
2021/07/25 05:45:22;;;;;;;4.4;3.8;;;;;;;20.69;84.3125;94786.14;;;;
2021/07/25 05:46:22;;;;;;;4.4;3.8;;;;;;;20.69;84.3125;94786.14;;;;
2021/07/25 05:47:23;;;;;;;4.4;3.8;;;;;;;20.69;84.3125;94786.14;;;;
2021/07/25 05:48:23;;;;;;;4.4;3.8;;;;;;;20.69;84.3125;94786.14;;;;
2021/07/25 05:49:24;;;;;;;4.4;3.8;;;;;;;20.69;84.3125;94786.14;;;;
2021/07/25 05:50:24;;;;;;;4.4;3.8;;;;;;;20.69;84.3125;94786.14;;;;
2021/07/25 05:51:25;;;;;;;4.4;3.8;;;;;;;20.69;84.3125;94786.14;;;;
2021/07/25 05:52:25;;;;;;;4.4;3.8;;;;;;;20.69;84.3125;94786.14;;;;
2021/07/25 05:53:26;;;;;;;4.4;3.8;;;;;;;20.69;84.3125;94786.14;;;;